createdAt,value
2019-02-26T00:00:28.178Z,1028.77
2019-02-26T00:01:28.700Z,1028.76
2019-02-26T00:02:28.927Z,1028.75
2019-02-26T00:03:29.205Z,1028.75
2019-02-26T00:04:29.845Z,1028.72
2019-02-26T00:05:28.956Z,1028.72
2019-02-26T00:06:30.115Z,1028.67
2019-02-26T00:07:29.841Z,1028.71
2019-02-26T00:08:29.634Z,1028.68
2019-02-26T00:09:29.993Z,1028.71
2019-02-26T00:10:29.040Z,1028.69
2019-02-26T00:11:29.033Z,1028.67
2019-02-26T00:12:28.699Z,1028.71
2019-02-26T00:13:29.585Z,1028.65
2019-02-26T00:14:30.244Z,1028.66
2019-02-26T00:15:31.303Z,1028.62
2019-02-26T00:16:29.045Z,1028.62
2019-02-26T00:17:28.000Z,1028.63
2019-02-26T00:18:28.030Z,1028.63
2019-02-26T00:19:27.977Z,1028.64
2019-02-26T00:20:30.933Z,1028.62
2019-02-26T00:21:29.309Z,1028.59
2019-02-26T00:22:29.589Z,1028.61
2019-02-26T00:23:30.024Z,1028.61
2019-02-26T00:24:30.548Z,1028.65
2019-02-26T00:25:27.910Z,1028.61
2019-02-26T00:26:27.943Z,1028.65
2019-02-26T00:27:28.661Z,1028.67
2019-02-26T00:28:27.879Z,1028.67
2019-02-26T00:29:29.740Z,1028.65
2019-02-26T00:30:27.855Z,1028.61
2019-02-26T00:31:28.741Z,1028.59
2019-02-26T00:32:29.818Z,1028.54
2019-02-26T00:33:28.994Z,1028.57
2019-02-26T00:34:27.812Z,1028.56
2019-02-26T00:35:27.881Z,1028.55
2019-02-26T00:36:29.724Z,1028.55
2019-02-26T00:37:28.456Z,1028.55
2019-02-26T00:38:27.769Z,1028.54
2019-02-26T00:39:29.716Z,1028.53
2019-02-26T00:40:27.752Z,1028.56
2019-02-26T00:41:29.141Z,1028.53
2019-02-26T00:42:28.893Z,1028.50
2019-02-26T00:43:29.841Z,1028.50
2019-02-26T00:44:29.752Z,1028.46
2019-02-26T00:45:29.556Z,1028.41
2019-02-26T00:46:28.467Z,1028.42
2019-02-26T00:47:29.898Z,1028.41
2019-02-26T00:48:27.705Z,1028.43
2019-02-26T00:49:28.509Z,1028.43
2019-02-26T00:50:28.141Z,1028.44
2019-02-26T00:51:27.674Z,1028.41
2019-02-26T00:52:28.251Z,1028.40
2019-02-26T00:53:28.481Z,1028.36
2019-02-26T00:54:29.226Z,1028.38
2019-02-26T00:55:29.842Z,1028.35
2019-02-26T00:56:29.441Z,1028.37
2019-02-26T00:57:29.462Z,1028.37
2019-02-26T00:58:27.554Z,1028.41
2019-02-26T00:59:27.542Z,1028.35
2019-02-26T01:00:28.524Z,1028.38
2019-02-26T01:01:27.524Z,1028.37
2019-02-26T01:02:27.591Z,1028.36
2019-02-26T01:03:27.499Z,1028.33
2019-02-26T01:04:27.488Z,1028.33
2019-02-26T01:05:27.478Z,1028.32
2019-02-26T01:06:29.060Z,1028.31
2019-02-26T01:07:28.265Z,1028.29
2019-02-26T01:08:27.444Z,1028.27
2019-02-26T01:09:29.342Z,1028.25
2019-02-26T01:10:27.447Z,1028.23
2019-02-26T01:11:27.992Z,1028.16
2019-02-26T01:12:27.401Z,1028.22
2019-02-26T01:13:28.446Z,1028.23
2019-02-26T01:14:27.380Z,1028.22
2019-02-26T01:15:27.368Z,1028.21
2019-02-26T01:16:27.361Z,1028.23
2019-02-26T01:17:27.388Z,1028.19
2019-02-26T01:18:28.974Z,1028.23
2019-02-26T01:19:27.325Z,1028.23
2019-02-26T01:20:28.001Z,1028.15
2019-02-26T01:21:29.110Z,1028.22
2019-02-26T01:22:27.336Z,1028.23
2019-02-26T01:23:28.922Z,1028.21
2019-02-26T01:24:28.079Z,1028.19
2019-02-26T01:25:27.261Z,1028.17
2019-02-26T01:26:27.871Z,1028.14
2019-02-26T01:27:27.240Z,1028.12
2019-02-26T01:28:29.215Z,1028.12
2019-02-26T01:29:27.804Z,1028.11
2019-02-26T01:30:29.398Z,1028.09
2019-02-26T01:31:29.095Z,1028.09
2019-02-26T01:32:27.188Z,1028.10
2019-02-26T01:33:29.757Z,1028.06
2019-02-26T01:34:27.207Z,1028.04
2019-02-26T01:35:28.847Z,1028.04
2019-02-26T01:36:27.179Z,1028.02
2019-02-26T01:37:27.853Z,1028.01
2019-02-26T01:38:27.122Z,1028.03
2019-02-26T01:39:27.111Z,1028.03
2019-02-26T01:40:27.144Z,1028.09
2019-02-26T01:41:27.353Z,1028.10
2019-02-26T01:42:29.269Z,1028.11
2019-02-26T01:43:27.067Z,1028.18
2019-02-26T01:44:30.434Z,1028.20
2019-02-26T01:45:29.905Z,1028.12
2019-02-26T01:46:27.034Z,1028.18
2019-02-26T01:47:28.528Z,1028.08
2019-02-26T01:48:27.013Z,1028.08
2019-02-26T01:49:28.528Z,1028.12
2019-02-26T01:50:28.418Z,1028.12
2019-02-26T01:51:28.608Z,1028.10
2019-02-26T01:52:26.969Z,1028.09
2019-02-26T01:53:27.433Z,1028.14
2019-02-26T01:54:28.276Z,1028.10
2019-02-26T01:55:27.626Z,1028.08
2019-02-26T01:56:26.925Z,1028.06
2019-02-26T01:57:27.755Z,1028.03
2019-02-26T01:58:26.904Z,1028.04
2019-02-26T01:59:26.893Z,1028.00
2019-02-26T02:00:26.887Z,1027.99
2019-02-26T02:01:26.884Z,1028.01
2019-02-26T02:02:28.245Z,1028.01
2019-02-26T02:03:28.020Z,1027.99
2019-02-26T02:04:26.840Z,1028.00
2019-02-26T02:05:29.482Z,1027.99
2019-02-26T02:06:26.829Z,1028.02
2019-02-26T02:07:28.745Z,1028.07
2019-02-26T02:08:26.837Z,1028.12
2019-02-26T02:09:26.783Z,1028.11
2019-02-26T02:10:26.774Z,1028.15
2019-02-26T02:11:30.628Z,1028.10
2019-02-26T02:12:29.500Z,1028.12
2019-02-26T02:13:28.752Z,1028.08
2019-02-26T02:14:26.729Z,1028.06
2019-02-26T02:15:26.718Z,1028.02
2019-02-26T02:16:29.042Z,1028.05
2019-02-26T02:17:28.671Z,1028.04
2019-02-26T02:18:29.352Z,1028.04
2019-02-26T02:19:27.612Z,1028.06
2019-02-26T02:20:26.726Z,1028.07
2019-02-26T02:21:30.423Z,1028.13
2019-02-26T02:22:26.644Z,1028.07
2019-02-26T02:23:28.039Z,1028.12
2019-02-26T02:24:26.674Z,1028.12
2019-02-26T02:25:28.965Z,1028.07
2019-02-26T02:26:26.600Z,1028.05
2019-02-26T02:27:28.160Z,1028.05
2019-02-26T02:28:28.604Z,1028.02
2019-02-26T02:29:28.529Z,1028.03
2019-02-26T02:30:30.359Z,1028.02
2019-02-26T02:31:30.375Z,1027.96
2019-02-26T02:32:28.660Z,1027.96
2019-02-26T02:33:29.364Z,1027.89
2019-02-26T02:34:29.332Z,1027.91
2019-02-26T02:35:26.571Z,1027.86
2019-02-26T02:36:26.803Z,1027.83
2019-02-26T02:37:27.447Z,1027.82
2019-02-26T02:38:26.517Z,1027.83
2019-02-26T02:39:29.054Z,1027.81
2019-02-26T02:40:26.448Z,1027.75
2019-02-26T02:41:26.437Z,1027.82
2019-02-26T02:42:26.429Z,1027.78
2019-02-26T02:43:26.416Z,1027.73
2019-02-26T02:44:26.451Z,1027.71
2019-02-26T02:45:26.394Z,1027.77
2019-02-26T02:46:26.385Z,1027.72
2019-02-26T02:47:28.538Z,1027.68
2019-02-26T02:48:26.362Z,1027.69
2019-02-26T02:49:26.351Z,1027.67
2019-02-26T02:50:26.343Z,1027.63
2019-02-26T02:51:28.158Z,1027.69
2019-02-26T02:52:27.186Z,1027.68
2019-02-26T02:53:27.419Z,1027.69
2019-02-26T02:54:26.299Z,1027.66
2019-02-26T02:55:26.287Z,1027.67
2019-02-26T02:56:26.273Z,1027.67
2019-02-26T02:57:26.940Z,1027.62
2019-02-26T02:58:26.255Z,1027.64
2019-02-26T02:59:28.187Z,1027.65
2019-02-26T03:00:28.488Z,1027.62
2019-02-26T03:01:28.629Z,1027.62
2019-02-26T03:02:26.211Z,1027.62
2019-02-26T03:03:26.197Z,1027.58
2019-02-26T03:04:29.056Z,1027.58
2019-02-26T03:05:26.179Z,1027.63
2019-02-26T03:06:28.092Z,1027.62
2019-02-26T03:07:27.378Z,1027.60
2019-02-26T03:08:26.145Z,1027.59
2019-02-26T03:09:26.135Z,1027.53
2019-02-26T03:10:30.532Z,1027.52
2019-02-26T03:11:26.110Z,1027.56
2019-02-26T03:12:26.103Z,1027.53
2019-02-26T03:13:28.007Z,1027.56
2019-02-26T03:14:26.079Z,1027.56
2019-02-26T03:15:27.393Z,1027.58
2019-02-26T03:16:27.181Z,1027.62
2019-02-26T03:17:26.094Z,1027.59
2019-02-26T03:18:26.034Z,1027.59
2019-02-26T03:19:26.065Z,1027.61
2019-02-26T03:20:28.694Z,1027.59
2019-02-26T03:21:27.888Z,1027.61
2019-02-26T03:22:25.996Z,1027.62
2019-02-26T03:23:25.985Z,1027.60
2019-02-26T03:24:28.404Z,1027.54
2019-02-26T03:25:27.198Z,1027.58
2019-02-26T03:26:28.005Z,1027.52
2019-02-26T03:27:27.976Z,1027.53
2019-02-26T03:28:26.932Z,1027.50
2019-02-26T03:29:25.916Z,1027.51
2019-02-26T03:30:32.879Z,1027.45
2019-02-26T03:31:33.744Z,1027.38
2019-02-26T03:32:26.885Z,1027.40
2019-02-26T03:33:25.915Z,1027.35
2019-02-26T03:34:26.084Z,1027.34
2019-02-26T03:35:25.850Z,1027.28
2019-02-26T03:36:25.842Z,1027.24
2019-02-26T03:37:28.492Z,1027.21
2019-02-26T03:38:26.995Z,1027.17
2019-02-26T03:39:25.848Z,1027.14
2019-02-26T03:40:27.252Z,1027.02
2019-02-26T03:41:28.325Z,1027.08
2019-02-26T03:42:25.775Z,1027.04
2019-02-26T03:43:25.773Z,1027.04
2019-02-26T03:44:29.569Z,1027.05
2019-02-26T03:45:25.751Z,1027.01
2019-02-26T03:46:25.738Z,1027.08
2019-02-26T03:47:25.759Z,1027.10
2019-02-26T03:48:25.714Z,1027.16
2019-02-26T03:49:27.082Z,1027.20
2019-02-26T03:50:27.064Z,1027.27
2019-02-26T03:51:25.679Z,1027.29
2019-02-26T03:52:25.709Z,1027.29
2019-02-26T03:53:28.102Z,1027.31
2019-02-26T03:54:25.683Z,1027.31
2019-02-26T03:55:25.642Z,1027.32
2019-02-26T03:56:25.619Z,1027.28
2019-02-26T03:57:25.660Z,1027.27
2019-02-26T03:58:25.599Z,1027.25
2019-02-26T03:59:25.634Z,1027.24
2019-02-26T04:00:25.578Z,1027.19
2019-02-26T04:01:25.568Z,1027.22
2019-02-26T04:02:25.601Z,1027.13
2019-02-26T04:03:25.546Z,1027.13
2019-02-26T04:04:26.134Z,1027.14
2019-02-26T04:05:25.526Z,1027.11
2019-02-26T04:06:25.512Z,1027.12
2019-02-26T04:07:27.861Z,1027.14
2019-02-26T04:08:27.146Z,1027.11
2019-02-26T04:09:25.505Z,1027.09
2019-02-26T04:10:25.467Z,1027.09
2019-02-26T04:11:27.690Z,1027.06
2019-02-26T04:12:25.447Z,1027.13
2019-02-26T04:13:25.436Z,1027.06
2019-02-26T04:14:26.350Z,1027.09
2019-02-26T04:15:27.873Z,1027.13
2019-02-26T04:16:25.451Z,1027.16
2019-02-26T04:17:28.013Z,1027.07
2019-02-26T04:18:25.383Z,1027.08
2019-02-26T04:19:26.770Z,1027.06
2019-02-26T04:20:27.754Z,1027.08
2019-02-26T04:21:25.349Z,1027.07
2019-02-26T04:22:26.408Z,1027.07
2019-02-26T04:23:25.326Z,1027.09
2019-02-26T04:24:26.010Z,1027.12
2019-02-26T04:25:27.837Z,1027.11
2019-02-26T04:26:29.045Z,1027.13
2019-02-26T04:27:25.281Z,1027.14
2019-02-26T04:28:30.775Z,1027.13
2019-02-26T04:29:26.265Z,1027.18
2019-02-26T04:30:25.250Z,1027.18
2019-02-26T04:31:25.240Z,1027.17
2019-02-26T04:32:25.271Z,1027.22
2019-02-26T04:33:27.315Z,1027.19
2019-02-26T04:34:25.247Z,1027.19
2019-02-26T04:35:25.240Z,1027.18
2019-02-26T04:36:25.189Z,1027.18
2019-02-26T04:37:27.249Z,1027.19
2019-02-26T04:38:26.723Z,1027.15
2019-02-26T04:39:25.192Z,1027.20
2019-02-26T04:40:28.324Z,1027.14
2019-02-26T04:41:26.179Z,1027.20
2019-02-26T04:42:25.119Z,1027.24
2019-02-26T04:43:25.943Z,1027.25
2019-02-26T04:44:26.853Z,1027.23
2019-02-26T04:45:25.087Z,1027.27
2019-02-26T04:46:26.048Z,1027.26
2019-02-26T04:47:26.788Z,1027.26
2019-02-26T04:48:26.951Z,1027.25
2019-02-26T04:49:27.039Z,1027.24
2019-02-26T04:50:28.603Z,1027.24
2019-02-26T04:51:25.026Z,1027.26
2019-02-26T04:52:25.056Z,1027.32
2019-02-26T04:53:25.807Z,1027.30
2019-02-26T04:54:27.162Z,1027.32
2019-02-26T04:55:29.009Z,1027.35
2019-02-26T04:56:24.969Z,1027.36
2019-02-26T04:57:24.954Z,1027.37
2019-02-26T04:58:24.989Z,1027.37
2019-02-26T04:59:24.934Z,1027.40
2019-02-26T05:00:27.729Z,1027.45
2019-02-26T05:01:24.913Z,1027.39
2019-02-26T05:02:24.946Z,1027.45
2019-02-26T05:03:24.904Z,1027.46
2019-02-26T05:04:24.890Z,1027.48
2019-02-26T05:05:25.867Z,1027.43
2019-02-26T05:06:24.897Z,1027.47
2019-02-26T05:07:24.848Z,1027.46
2019-02-26T05:08:24.835Z,1027.45
2019-02-26T05:09:27.282Z,1027.47
2019-02-26T05:10:27.060Z,1027.50
2019-02-26T05:11:31.424Z,1027.52
2019-02-26T05:12:28.046Z,1027.51
2019-02-26T05:13:27.007Z,1027.52
2019-02-26T05:14:24.811Z,1027.55
2019-02-26T05:15:26.522Z,1027.61
2019-02-26T05:16:26.614Z,1027.60
2019-02-26T05:17:29.639Z,1027.62
2019-02-26T05:18:26.526Z,1027.64
2019-02-26T05:19:24.724Z,1027.67
2019-02-26T05:20:24.704Z,1027.62
2019-02-26T05:21:27.120Z,1027.62
2019-02-26T05:22:25.739Z,1027.65
2019-02-26T05:23:25.987Z,1027.60
2019-02-26T05:24:26.326Z,1027.63
2019-02-26T05:25:24.651Z,1027.59
2019-02-26T05:26:24.636Z,1027.60
2019-02-26T05:27:25.097Z,1027.56
2019-02-26T05:28:24.618Z,1027.62
2019-02-26T05:29:24.605Z,1027.62
2019-02-26T05:30:24.644Z,1027.63
2019-02-26T05:31:24.584Z,1027.70
2019-02-26T05:32:27.208Z,1027.73
2019-02-26T05:33:27.674Z,1027.80
2019-02-26T05:34:25.969Z,1027.73
2019-02-26T05:35:25.325Z,1027.75
2019-02-26T05:36:24.566Z,1027.79
2019-02-26T05:37:28.492Z,1027.77
2019-02-26T05:38:26.437Z,1027.73
2019-02-26T05:39:26.703Z,1027.72
2019-02-26T05:40:24.544Z,1027.71
2019-02-26T05:41:24.476Z,1027.72
2019-02-26T05:42:24.469Z,1027.76
2019-02-26T05:43:26.446Z,1027.75
2019-02-26T05:44:24.441Z,1027.72
2019-02-26T05:45:26.559Z,1027.73
2019-02-26T05:46:26.912Z,1027.75
2019-02-26T05:47:26.557Z,1027.81
2019-02-26T05:48:25.944Z,1027.83
2019-02-26T05:49:24.429Z,1027.80
2019-02-26T05:50:24.376Z,1027.80
2019-02-26T05:51:25.041Z,1027.81
2019-02-26T05:52:27.256Z,1027.72
2019-02-26T05:53:25.342Z,1027.75
2019-02-26T05:54:24.547Z,1027.78
2019-02-26T05:55:25.627Z,1027.77
2019-02-26T05:56:24.353Z,1027.79
2019-02-26T05:57:31.273Z,1027.80
2019-02-26T05:58:25.311Z,1027.80
2019-02-26T05:59:24.277Z,1027.75
2019-02-26T06:00:26.290Z,1027.79
2019-02-26T06:01:25.050Z,1027.80
2019-02-26T06:02:24.639Z,1027.83
2019-02-26T06:03:24.240Z,1027.80
2019-02-26T06:04:24.272Z,1027.72
2019-02-26T06:05:26.172Z,1027.73
2019-02-26T06:06:24.249Z,1027.66
2019-02-26T06:07:27.533Z,1027.73
2019-02-26T06:08:26.760Z,1027.78
2019-02-26T06:09:26.154Z,1027.76
2019-02-26T06:10:25.173Z,1027.81
2019-02-26T06:11:28.298Z,1027.83
2019-02-26T06:12:25.138Z,1027.83
2019-02-26T06:13:24.125Z,1027.80
2019-02-26T06:14:25.568Z,1027.79
2019-02-26T06:15:25.906Z,1027.80
2019-02-26T06:16:24.807Z,1027.78
2019-02-26T06:17:24.143Z,1027.78
2019-02-26T06:18:24.093Z,1027.73
2019-02-26T06:19:24.063Z,1027.81
2019-02-26T06:20:26.164Z,1027.80
2019-02-26T06:21:25.933Z,1027.80
2019-02-26T06:22:26.652Z,1027.82
2019-02-26T06:23:25.532Z,1027.86
2019-02-26T06:24:24.831Z,1027.82
2019-02-26T06:25:24.649Z,1027.82
2019-02-26T06:26:28.106Z,1027.82
2019-02-26T06:27:27.332Z,1027.82
2019-02-26T06:28:23.966Z,1027.85
2019-02-26T06:29:24.736Z,1027.89
2019-02-26T06:30:23.944Z,1027.88
2019-02-26T06:31:24.926Z,1027.81
2019-02-26T06:32:27.522Z,1027.81
2019-02-26T06:33:23.912Z,1027.88
2019-02-26T06:34:23.899Z,1027.87
2019-02-26T06:35:23.935Z,1027.88
2019-02-26T06:36:25.606Z,1027.84
2019-02-26T06:37:24.506Z,1027.90
2019-02-26T06:38:25.830Z,1027.91
2019-02-26T06:39:24.584Z,1027.83
2019-02-26T06:40:23.885Z,1027.88
2019-02-26T06:41:23.951Z,1027.87
2019-02-26T06:42:23.830Z,1027.81
2019-02-26T06:43:23.800Z,1027.80
2019-02-26T06:44:23.823Z,1027.77
2019-02-26T06:45:23.782Z,1027.77
2019-02-26T06:46:23.768Z,1027.80
2019-02-26T06:47:26.052Z,1027.75
2019-02-26T06:48:25.021Z,1027.78
2019-02-26T06:49:24.605Z,1027.82
2019-02-26T06:50:23.756Z,1027.81
2019-02-26T06:51:25.800Z,1027.81
2019-02-26T06:52:23.709Z,1027.82
2019-02-26T06:53:23.791Z,1027.80
2019-02-26T06:54:24.948Z,1027.81
2019-02-26T06:55:23.674Z,1027.78
2019-02-26T06:56:23.669Z,1027.80
2019-02-26T06:57:23.665Z,1027.78
2019-02-26T06:58:23.649Z,1027.80
2019-02-26T06:59:25.178Z,1027.82
2019-02-26T07:00:25.326Z,1027.81
2019-02-26T07:01:23.612Z,1027.83
2019-02-26T07:02:28.244Z,1027.89
2019-02-26T07:03:24.965Z,1027.92
2019-02-26T07:04:23.629Z,1027.96
2019-02-26T07:05:24.494Z,1027.97
2019-02-26T07:06:25.512Z,1027.92
2019-02-26T07:07:23.652Z,1027.86
2019-02-26T07:08:24.201Z,1027.86
2019-02-26T07:09:23.616Z,1027.81
2019-02-26T07:10:26.098Z,1027.79
2019-02-26T07:11:25.563Z,1027.80
2019-02-26T07:12:24.098Z,1027.80
2019-02-26T07:13:23.536Z,1027.77
2019-02-26T07:14:24.963Z,1027.78
2019-02-26T07:15:23.964Z,1027.82
2019-02-26T07:16:23.447Z,1027.86
2019-02-26T07:17:23.447Z,1027.85
2019-02-26T07:18:23.427Z,1027.82
2019-02-26T07:19:23.438Z,1027.77
2019-02-26T07:20:23.459Z,1027.81
2019-02-26T07:21:23.386Z,1027.80
2019-02-26T07:22:23.380Z,1027.78
2019-02-26T07:23:23.374Z,1027.77
2019-02-26T07:24:24.844Z,1027.74
2019-02-26T07:25:23.422Z,1027.74
2019-02-26T07:26:23.332Z,1027.73
2019-02-26T07:27:23.358Z,1027.69
2019-02-26T07:28:26.441Z,1027.70
2019-02-26T07:29:23.301Z,1027.72
2019-02-26T07:30:24.174Z,1027.77
2019-02-26T07:31:24.276Z,1027.72
2019-02-26T07:32:24.624Z,1027.75
2019-02-26T07:33:23.328Z,1027.72
2019-02-26T07:34:25.083Z,1027.74
2019-02-26T07:35:23.297Z,1027.76
2019-02-26T07:36:24.097Z,1027.75
2019-02-26T07:37:23.315Z,1027.74
2019-02-26T07:38:25.093Z,1027.76
2019-02-26T07:39:23.329Z,1027.78
2019-02-26T07:40:23.217Z,1027.78
2019-02-26T07:41:25.433Z,1027.78
2019-02-26T07:42:23.828Z,1027.72
2019-02-26T07:43:24.231Z,1027.75
2019-02-26T07:44:24.144Z,1027.74
2019-02-26T07:45:24.980Z,1027.69
2019-02-26T07:46:23.321Z,1027.68
2019-02-26T07:47:24.412Z,1027.69
2019-02-26T07:48:23.733Z,1027.69
2019-02-26T07:49:24.026Z,1027.72
2019-02-26T07:50:23.151Z,1027.72
2019-02-26T07:51:23.106Z,1027.77
2019-02-26T07:52:26.017Z,1027.74
2019-02-26T07:53:24.624Z,1027.73
2019-02-26T07:54:23.135Z,1027.70
2019-02-26T07:55:23.205Z,1027.75
2019-02-26T07:56:25.496Z,1027.75
2019-02-26T07:57:25.730Z,1027.76
2019-02-26T07:58:23.135Z,1027.74
2019-02-26T07:59:27.570Z,1027.70
2019-02-26T08:00:23.120Z,1027.65
2019-02-26T08:01:23.021Z,1027.71
2019-02-26T08:02:23.059Z,1027.70
2019-02-26T08:03:24.729Z,1027.67
2019-02-26T08:04:22.976Z,1027.66
2019-02-26T08:06:48.381Z,1027.68
2019-02-26T08:09:07.082Z,1027.70
2019-02-26T08:10:07.627Z,1027.62
2019-02-26T08:11:04.745Z,1027.66
2019-02-26T08:12:06.612Z,1027.70
2019-02-26T08:13:07.489Z,1027.68
2019-02-26T08:14:04.751Z,1027.65
2019-02-26T08:15:07.762Z,1027.65
2019-02-26T08:16:05.213Z,1027.62
2019-02-26T08:17:06.300Z,1027.52
2019-02-26T08:18:05.331Z,1027.54
2019-02-26T08:19:05.292Z,1027.53
2019-02-26T08:20:07.455Z,1027.52
2019-02-26T08:21:05.158Z,1027.48
2019-02-26T08:22:04.605Z,1027.52
2019-02-26T08:23:04.607Z,1027.55
2019-02-26T08:24:04.652Z,1027.49
2019-02-26T08:25:04.620Z,1027.52
2019-02-26T08:26:04.616Z,1027.47
2019-02-26T08:27:06.071Z,1027.47
2019-02-26T08:28:04.545Z,1027.46
2019-02-26T08:29:05.694Z,1027.42
2019-02-26T08:30:06.714Z,1027.41
2019-02-26T08:31:05.395Z,1027.45
2019-02-26T08:32:04.553Z,1027.45
2019-02-26T08:33:06.809Z,1027.41
2019-02-26T08:34:04.485Z,1027.45
2019-02-26T08:35:04.488Z,1027.42
2019-02-26T08:36:04.467Z,1027.45
2019-02-26T08:37:04.520Z,1027.48
2019-02-26T08:38:06.267Z,1027.56
2019-02-26T08:39:04.423Z,1027.55
2019-02-26T08:40:04.415Z,1027.56
2019-02-26T08:41:04.420Z,1027.55
2019-02-26T08:42:04.408Z,1027.53
2019-02-26T08:43:04.438Z,1027.56
2019-02-26T08:44:04.943Z,1027.55
2019-02-26T08:45:04.363Z,1027.53
2019-02-26T08:46:04.379Z,1027.53
2019-02-26T08:47:08.776Z,1027.56
2019-02-26T08:48:05.391Z,1027.52
2019-02-26T08:49:08.308Z,1027.51
2019-02-26T08:50:07.387Z,1027.50
2019-02-26T08:51:08.153Z,1027.48
2019-02-26T08:52:05.433Z,1027.43
2019-02-26T08:53:05.065Z,1027.46
2019-02-26T08:54:04.413Z,1027.47
2019-02-26T08:55:04.370Z,1027.45
2019-02-26T08:56:04.278Z,1027.48
2019-02-26T08:57:04.264Z,1027.49
2019-02-26T08:58:04.291Z,1027.45
2019-02-26T08:59:04.319Z,1027.43
2019-02-26T09:00:04.334Z,1027.48
2019-02-26T09:01:04.209Z,1027.47
2019-02-26T09:02:04.207Z,1027.49
2019-02-26T09:03:04.154Z,1027.45
2019-02-26T09:04:04.221Z,1027.48
2019-02-26T09:05:06.718Z,1027.45
2019-02-26T09:06:12.842Z,1027.44
2019-02-26T09:07:05.250Z,1027.47
2019-02-26T09:08:05.655Z,1027.45
2019-02-26T09:09:05.114Z,1027.51
2019-02-26T09:10:06.982Z,1027.47
2019-02-26T09:11:05.730Z,1027.52
2019-02-26T09:12:04.159Z,1027.47
2019-02-26T09:13:06.165Z,1027.50
2019-02-26T09:14:06.544Z,1027.53
2019-02-26T09:15:04.056Z,1027.57
2019-02-26T09:16:06.116Z,1027.54
2019-02-26T09:17:04.503Z,1027.55
2019-02-26T09:18:04.065Z,1027.55
2019-02-26T09:19:04.041Z,1027.49
2019-02-26T09:20:09.372Z,1027.49
2019-02-26T09:21:07.075Z,1027.48
2019-02-26T09:22:03.949Z,1027.48
2019-02-26T09:23:03.952Z,1027.45
2019-02-26T09:24:07.096Z,1027.42
2019-02-26T09:25:06.239Z,1027.43
2019-02-26T09:26:06.601Z,1027.44
2019-02-26T09:27:05.067Z,1027.44
2019-02-26T09:28:04.436Z,1027.46
2019-02-26T09:29:04.236Z,1027.41
2019-02-26T09:30:05.770Z,1027.44
2019-02-26T09:31:06.286Z,1027.36
2019-02-26T09:32:06.675Z,1027.37
2019-02-26T09:33:05.844Z,1027.36
2019-02-26T09:34:04.727Z,1027.35
2019-02-26T09:35:04.776Z,1027.32
2019-02-26T09:36:03.784Z,1027.34
2019-02-26T09:37:05.760Z,1027.34
2019-02-26T09:38:03.778Z,1027.36
2019-02-26T09:39:05.741Z,1027.38
2019-02-26T09:40:04.878Z,1027.31
2019-02-26T09:41:03.784Z,1027.35
2019-02-26T09:42:04.218Z,1027.36
2019-02-26T09:43:05.934Z,1027.35
2019-02-26T09:44:06.215Z,1027.36
2019-02-26T09:45:03.700Z,1027.33
2019-02-26T09:46:04.402Z,1027.33
2019-02-26T09:47:05.354Z,1027.35
2019-02-26T09:48:03.662Z,1027.39
2019-02-26T09:49:05.086Z,1027.38
2019-02-26T09:50:04.632Z,1027.36
2019-02-26T09:51:04.891Z,1027.33
2019-02-26T09:52:04.418Z,1027.36
2019-02-26T09:53:03.607Z,1027.35
2019-02-26T09:54:03.607Z,1027.34
2019-02-26T09:55:03.586Z,1027.38
2019-02-26T09:56:03.571Z,1027.37
2019-02-26T09:57:03.558Z,1027.36
2019-02-26T09:58:03.613Z,1027.34
2019-02-26T09:59:05.133Z,1027.34
2019-02-26T10:00:03.555Z,1027.36
2019-02-26T10:01:03.540Z,1027.37
2019-02-26T10:02:04.116Z,1027.38
2019-02-26T10:03:05.485Z,1027.36
2019-02-26T10:04:05.412Z,1027.38
2019-02-26T10:05:04.003Z,1027.41
2019-02-26T10:06:03.612Z,1027.44
2019-02-26T10:07:04.278Z,1027.42
2019-02-26T10:08:05.343Z,1027.42
2019-02-26T10:09:03.492Z,1027.36
2019-02-26T10:10:05.933Z,1027.33
2019-02-26T10:11:04.982Z,1027.41
2019-02-26T10:12:06.920Z,1027.42
2019-02-26T10:13:06.115Z,1027.40
2019-02-26T10:14:05.405Z,1027.41
2019-02-26T10:15:05.219Z,1027.38
2019-02-26T10:16:04.503Z,1027.42
2019-02-26T10:17:03.520Z,1027.40
2019-02-26T10:18:07.195Z,1027.45
2019-02-26T10:19:04.350Z,1027.41
2019-02-26T10:20:05.020Z,1027.47
2019-02-26T10:21:03.345Z,1027.50
2019-02-26T10:22:06.390Z,1027.52
2019-02-26T10:23:06.380Z,1027.53
2019-02-26T10:24:04.593Z,1027.48
2019-02-26T10:25:03.283Z,1027.52
2019-02-26T10:26:05.229Z,1027.47
2019-02-26T10:27:05.930Z,1027.47
2019-02-26T10:28:06.174Z,1027.46
2019-02-26T10:29:04.853Z,1027.42
2019-02-26T10:30:07.162Z,1027.41
2019-02-26T10:31:04.876Z,1027.42
2019-02-26T10:32:03.226Z,1027.41
2019-02-26T10:33:03.189Z,1027.40
2019-02-26T10:34:07.759Z,1027.43
2019-02-26T10:35:04.631Z,1027.45
2019-02-26T10:36:05.353Z,1027.44
2019-02-26T10:37:03.116Z,1027.44
2019-02-26T10:38:05.833Z,1027.48
2019-02-26T10:39:04.081Z,1027.44
2019-02-26T10:40:03.098Z,1027.45
2019-02-26T10:41:05.110Z,1027.49
2019-02-26T10:42:04.278Z,1027.43
2019-02-26T10:43:03.051Z,1027.39
2019-02-26T10:44:03.041Z,1027.40
2019-02-26T10:45:03.025Z,1027.40
2019-02-26T10:46:03.051Z,1027.42
2019-02-26T10:47:04.060Z,1027.43
2019-02-26T10:48:02.985Z,1027.39
2019-02-26T10:49:02.963Z,1027.42
2019-02-26T10:50:02.958Z,1027.43
2019-02-26T10:51:06.094Z,1027.40
2019-02-26T10:52:02.995Z,1027.39
2019-02-26T10:53:09.649Z,1027.38
2019-02-26T10:54:08.256Z,1027.37
2019-02-26T10:55:02.903Z,1027.34
2019-02-26T10:56:02.881Z,1027.36
2019-02-26T10:57:06.449Z,1027.35
2019-02-26T10:58:07.106Z,1027.29
2019-02-26T10:59:06.822Z,1027.27
2019-02-26T11:00:06.410Z,1027.24
2019-02-26T11:01:05.233Z,1027.20
2019-02-26T11:02:03.193Z,1027.19
2019-02-26T11:03:02.818Z,1027.22
2019-02-26T11:04:04.377Z,1027.20
2019-02-26T11:05:02.789Z,1027.17
2019-02-26T11:06:04.626Z,1027.16
2019-02-26T11:07:04.942Z,1027.17
2019-02-26T11:08:08.838Z,1027.12
2019-02-26T11:09:04.340Z,1027.18
2019-02-26T11:10:03.269Z,1027.15
2019-02-26T11:11:04.704Z,1027.13
2019-02-26T11:12:05.191Z,1027.13
2019-02-26T11:13:02.694Z,1027.13
2019-02-26T11:14:05.127Z,1027.12
2019-02-26T11:15:04.933Z,1027.12
2019-02-26T11:16:03.112Z,1027.08
2019-02-26T11:17:02.726Z,1027.06
2019-02-26T11:18:02.636Z,1027.08
2019-02-26T11:19:04.373Z,1027.05
2019-02-26T11:20:04.669Z,1027.05
2019-02-26T11:21:02.625Z,1027.06
2019-02-26T11:22:04.208Z,1027.05
2019-02-26T11:23:04.131Z,1027.00
2019-02-26T11:24:03.657Z,1026.97
2019-02-26T11:25:02.560Z,1027.01
2019-02-26T11:26:04.178Z,1027.04
2019-02-26T11:27:02.626Z,1026.96
2019-02-26T11:28:04.756Z,1026.97
2019-02-26T11:29:02.517Z,1026.97
2019-02-26T11:30:05.005Z,1026.96
2019-02-26T11:31:02.637Z,1026.91
2019-02-26T11:32:04.524Z,1026.97
2019-02-26T11:33:05.369Z,1026.97
2019-02-26T11:34:04.032Z,1026.92
2019-02-26T11:35:02.745Z,1026.92
2019-02-26T11:36:03.070Z,1026.92
2019-02-26T11:37:03.309Z,1026.95
2019-02-26T11:38:03.490Z,1026.93
2019-02-26T11:39:05.040Z,1026.94
2019-02-26T11:40:03.622Z,1026.89
2019-02-26T11:41:02.405Z,1026.87
2019-02-26T11:42:02.380Z,1026.85
2019-02-26T11:43:11.265Z,1026.84
2019-02-26T11:44:07.149Z,1026.87
2019-02-26T11:45:02.335Z,1026.86
2019-02-26T11:46:03.804Z,1026.80
2019-02-26T11:47:02.389Z,1026.80
2019-02-26T11:48:03.706Z,1026.76
2019-02-26T11:49:02.340Z,1026.78
2019-02-26T11:50:04.749Z,1026.76
2019-02-26T11:51:02.306Z,1026.72
2019-02-26T11:52:04.417Z,1026.69
2019-02-26T11:53:02.309Z,1026.64
2019-02-26T11:54:04.863Z,1026.65
2019-02-26T11:55:05.784Z,1026.64
2019-02-26T11:56:02.205Z,1026.64
2019-02-26T11:57:04.311Z,1026.64
2019-02-26T11:58:05.643Z,1026.66
2019-02-26T11:59:06.563Z,1026.62
2019-02-26T12:00:04.338Z,1026.58
2019-02-26T12:01:02.177Z,1026.61
2019-02-26T12:02:04.534Z,1026.60
2019-02-26T12:03:02.147Z,1026.55
2019-02-26T12:04:04.114Z,1026.55
2019-02-26T12:05:02.890Z,1026.55
2019-02-26T12:06:02.265Z,1026.53
2019-02-26T12:07:04.143Z,1026.51
2019-02-26T12:08:02.144Z,1026.53